createdAt,value
2022-12-01T00:01:18.639Z,102881.44
2022-12-01T00:03:45.222Z,102876.25
2022-12-01T00:06:28.946Z,102875.03
2022-12-01T00:09:19.192Z,102873.84
2022-12-01T00:11:46.239Z,102869.50
2022-12-01T00:14:18.983Z,102871.34
2022-12-01T00:17:04.993Z,102871.97
2022-12-01T00:19:33.601Z,102870.97
2022-12-01T00:22:33.067Z,102866.44
2022-12-01T00:25:17.732Z,102869.13
2022-12-01T00:27:52.992Z,102867.91
2022-12-01T00:30:27.596Z,102869.56
2022-12-01T00:32:53.974Z,102874.13
2022-12-01T00:36:05.099Z,102874.13
2022-12-01T00:38:32.152Z,102870.59
2022-12-01T00:40:58.607Z,102877.47
2022-12-01T00:44:08.955Z,102872.91
2022-12-01T00:46:35.419Z,102872.09
2022-12-01T00:49:01.814Z,102872.09
2022-12-01T00:51:28.281Z,102863.16
2022-12-01T00:53:57.758Z,102860.47
2022-12-01T00:57:07.779Z,102863.00
2022-12-01T00:59:35.117Z,102865.50
2022-12-01T01:02:06.509Z,102866.34
2022-12-01T01:05:31.126Z,102868.03
2022-12-01T01:08:10.265Z,102869.69
2022-12-01T01:10:47.562Z,102875.06
2022-12-01T01:13:16.346Z,102881.47
2022-12-01T01:16:07.409Z,102878.41
2022-12-01T01:18:34.167Z,102887.13
2022-12-01T01:21:39.685Z,102881.75
2022-12-01T01:24:06.451Z,102886.13
2022-12-01T01:26:33.584Z,102888.81
2022-12-01T01:29:02.307Z,102883.44
2022-12-01T01:31:36.740Z,102883.44
2022-12-01T01:34:03.968Z,102875.16
2022-12-01T01:36:42.778Z,102882.03
2022-12-01T01:39:26.624Z,102884.72
2022-12-01T01:42:38.788Z,102892.81
2022-12-01T01:49:05.347Z,102897.53
2022-12-01T01:51:57.931Z,102894.66
2022-12-01T01:54:31.556Z,102893.63
2022-12-01T01:57:01.757Z,102895.28
2022-12-01T01:59:42.839Z,102891.13
2022-12-01T02:02:57.998Z,102899.84
2022-12-01T02:05:28.007Z,102906.25
2022-12-01T02:07:58.493Z,102892.59
2022-12-01T02:11:09.747Z,102897.16
2022-12-01T02:14:25.112Z,102890.38
2022-12-01T02:17:32.087Z,102887.69
2022-12-01T02:20:53.280Z,102881.47
2022-12-01T02:23:48.162Z,102882.31
2022-12-01T02:26:42.608Z,102875.91
2022-12-01T02:29:18.195Z,102876.94
2022-12-01T02:31:58.954Z,102883.34
2022-12-01T02:34:44.311Z,102887.06
2022-12-01T02:37:23.513Z,102878.13
2022-12-01T02:40:26.565Z,102874.41
2022-12-01T02:43:18.745Z,102878.13
2022-12-01T02:46:10.906Z,102880.16
2022-12-01T02:48:51.326Z,102883.06
2022-12-01T02:51:26.643Z,102890.47
2022-12-01T02:54:22.126Z,102883.06
2022-12-01T02:56:52.851Z,102881.00
2022-12-01T02:59:30.695Z,102887.59
2022-12-01T03:02:49.613Z,102887.59
2022-12-01T03:05:55.311Z,102895.22
2022-12-01T03:08:28.789Z,102890.47
2022-12-01T03:11:01.447Z,102886.13
2022-12-01T03:14:12.567Z,102892.16
2022-12-01T03:16:59.378Z,102892.53
2022-12-01T03:19:37.247Z,102894.56
2022-12-01T03:22:29.746Z,102890.84
2022-12-01T03:25:01.337Z,102887.13
2022-12-01T03:27:33.369Z,102885.47
2022-12-01T03:30:29.756Z,102887.13
2022-12-01T03:33:09.903Z,102887.13
2022-12-01T03:35:56.289Z,102894.19
2022-12-01T03:38:27.828Z,102887.59
2022-12-01T03:41:03.532Z,102886.78
2022-12-01T03:43:36.777Z,102889.63
2022-12-01T03:46:15.552Z,102887.97
2022-12-01T03:49:17.332Z,102880.91
2022-12-01T03:52:28.450Z,102897.91
2022-12-01T03:55:32.162Z,102890.00
2022-12-01T03:58:04.406Z,102888.31
2022-12-01T04:00:43.768Z,102886.50
2022-12-01T04:03:35.780Z,102887.50
2022-12-01T04:06:55.228Z,102884.16
2022-12-01T04:09:24.177Z,102890.19
2022-12-01T04:16:25.836Z,102887.88
2022-12-01T04:19:06.760Z,102893.44
2022-12-01T04:21:35.271Z,102890.75
2022-12-01T04:24:30.742Z,102894.44
2022-12-01T04:27:02.211Z,102893.63
2022-12-01T04:29:28.594Z,102891.97
2022-12-01T04:31:55.219Z,102891.31
2022-12-01T04:34:40.914Z,102901.06
2022-12-01T04:37:12.132Z,102899.38
2022-12-01T04:39:38.668Z,102904.75
2022-12-01T04:42:25.388Z,102900.56
2022-12-01T04:45:12.146Z,102896.03
2022-12-01T04:47:38.608Z,102891.47
2022-12-01T04:50:05.676Z,102900.56
2022-12-01T04:52:35.277Z,102894.00
2022-12-01T04:55:03.359Z,102890.66
2022-12-01T04:57:49.934Z,102892.97
2022-12-01T05:00:16.508Z,102890.28
2022-12-01T05:02:43.690Z,102899.19
2022-12-01T05:05:38.967Z,102890.28
2022-12-01T05:08:09.802Z,102891.47
2022-12-01T05:10:37.551Z,102893.16
2022-12-01T05:13:05.603Z,102902.88
2022-12-01T05:19:53.359Z,102894.38
2022-12-01T05:23:05.315Z,102899.75
2022-12-01T05:26:01.310Z,102891.75
2022-12-01T05:28:41.987Z,102900.84
2022-12-01T05:31:08.459Z,102903.06
2022-12-01T05:33:49.158Z,102913.00
2022-12-01T05:36:15.715Z,102915.69
2022-12-01T05:38:42.147Z,102916.69
2022-12-01T05:41:09.219Z,102915.03
2022-12-01T05:43:35.782Z,102913.34
2022-12-01T05:46:02.419Z,102912.69
2022-12-01T05:48:43.335Z,102902.78
2022-12-01T05:51:59.706Z,102912.69
2022-12-01T05:54:26.171Z,102906.31
2022-12-01T05:57:20.558Z,102912.34
2022-12-01T05:59:56.442Z,102908.63
2022-12-01T06:03:02.183Z,102900.75
2022-12-01T06:05:28.636Z,102902.97
2022-12-01T06:08:10.408Z,102900.28
2022-12-01T06:10:54.299Z,102891.91
2022-12-01T06:13:27.930Z,102893.28
2022-12-01T06:16:21.623Z,102894.66
2022-12-01T06:18:59.425Z,102902.66
2022-12-01T06:21:40.043Z,102906.53
2022-12-01T06:24:22.861Z,102905.03
2022-12-01T06:26:57.535Z,102917.63
2022-12-01T06:29:23.903Z,102921.69
2022-12-01T06:31:51.555Z,102914.19
2022-12-01T06:34:31.216Z,102914.06
2022-12-01T06:37:47.617Z,102922.84
2022-12-01T06:40:14.419Z,102917.84
2022-12-01T06:42:41.897Z,102924.94
2022-12-01T06:45:50.254Z,102930.19
2022-12-01T06:48:31.623Z,102919.47
2022-12-01T06:51:06.099Z,102927.44
2022-12-01T06:53:47.774Z,102928.13
2022-12-01T06:56:52.359Z,102925.13
2022-12-01T06:59:21.109Z,102933.34
2022-12-01T07:01:58.093Z,102934.56
2022-12-01T07:04:24.520Z,102934.91
2022-12-01T07:06:50.915Z,102933.78
2022-12-01T07:09:34.825Z,102939.78
2022-12-01T07:12:15.533Z,102943.50
2022-12-01T07:15:19.642Z,102945.88
2022-12-01T07:17:48.062Z,102949.72
2022-12-01T07:20:33.848Z,102950.41
2022-12-01T07:23:31.963Z,102955.75
2022-12-01T07:26:00.388Z,102962.16
2022-12-01T07:28:27.974Z,102960.47
2022-12-01T07:31:28.623Z,102972.22
2022-12-01T07:34:06.572Z,102976.59
2022-12-01T07:36:39.307Z,102978.44
2022-12-01T07:39:08.747Z,102980.94
2022-12-01T07:41:35.771Z,102979.94
2022-12-01T07:44:32.420Z,102980.94
2022-12-01T07:47:31.957Z,102977.25
2022-12-01T07:50:21.346Z,102982.47
2022-12-01T07:52:59.071Z,102982.28
2022-12-01T07:55:25.570Z,102982.28
2022-12-01T07:58:02.300Z,102995.53
2022-12-01T08:00:29.847Z,102985.44
2022-12-01T08:02:56.400Z,102981.22
2022-12-01T08:05:22.827Z,102994.97
2022-12-01T08:07:49.329Z,103002.50
2022-12-01T08:10:44.719Z,102987.72
2022-12-01T08:13:17.002Z,102989.88
2022-12-01T08:15:44.221Z,103000.09
2022-12-01T08:18:26.987Z,102997.06
2022-12-01T08:21:01.762Z,102996.34
2022-12-01T08:23:37.477Z,102996.84
2022-12-01T08:26:06.755Z,102997.34
2022-12-01T08:28:46.316Z,103000.69
2022-12-01T08:31:33.230Z,103004.03
2022-12-01T08:34:37.970Z,103004.50
2022-12-01T08:37:04.536Z,103007.84
2022-12-01T08:39:30.988Z,103008.34
2022-12-01T08:42:03.765Z,103006.13
2022-12-01T08:44:32.232Z,103006.78
2022-12-01T08:46:58.797Z,103004.59
2022-12-01T08:49:26.379Z,103006.72
2022-12-01T08:51:52.897Z,103011.09
2022-12-01T08:54:19.309Z,103018.81
2022-12-01T08:56:45.911Z,103014.28
2022-12-01T08:59:13.008Z,103014.59
2022-12-01T09:01:52.226Z,103010.03
2022-12-01T09:04:26.681Z,103016.56
2022-12-01T09:06:56.228Z,103008.97
2022-12-01T09:09:28.605Z,103014.19
2022-12-01T09:12:03.370Z,103006.56
2022-12-01T09:14:29.739Z,102997.13
2022-12-01T09:16:56.132Z,102999.81
2022-12-01T09:19:25.108Z,103008.06
2022-12-01T09:21:52.506Z,103006.88
2022-12-01T09:24:18.879Z,103005.84
2022-12-01T09:26:45.338Z,103007.53
2022-12-01T09:29:13.738Z,103005.50
2022-12-01T09:31:41.315Z,103002.59
2022-12-01T09:34:11.871Z,103004.28
2022-12-01T09:36:38.970Z,103007.47
2022-12-01T09:39:11.821Z,103002.75
2022-12-01T09:41:40.683Z,103005.22
2022-12-01T09:44:13.953Z,102998.84
2022-12-01T09:46:46.010Z,103002.38
2022-12-01T09:49:18.867Z,102998.31
2022-12-01T09:51:45.498Z,102991.72
2022-12-01T09:54:14.276Z,102988.84
2022-12-01T09:56:52.909Z,102981.22
2022-12-01T09:59:48.685Z,102980.03
2022-12-01T10:02:32.481Z,102972.44
2022-12-01T10:05:04.390Z,102973.09
2022-12-01T10:07:42.897Z,102970.88
2022-12-01T10:10:24.913Z,102970.03
2022-12-01T10:13:19.907Z,102963.44
2022-12-01T10:16:13.231Z,102976.72
2022-12-01T10:18:46.270Z,102979.88
2022-12-01T10:21:22.090Z,102981.56
2022-12-01T10:24:17.302Z,102973.56
2022-12-01T10:27:29.455Z,102976.72
2022-12-01T10:30:39.219Z,102977.38
2022-12-01T10:33:49.209Z,102977.84
2022-12-01T10:36:18.660Z,102981.84
2022-12-01T10:39:07.102Z,102978.78
2022-12-01T10:41:37.749Z,102978.94
2022-12-01T10:44:19.694Z,102984.53
2022-12-01T10:46:49.188Z,102977.47
2022-12-01T10:49:17.624Z,102974.97
2022-12-01T10:52:07.488Z,102980.34
2022-12-01T10:54:38.487Z,102978.94
2022-12-01T10:57:16.153Z,102982.28
2022-12-01T10:59:53.129Z,102976.91
2022-12-01T11:02:22.847Z,102971.38
2022-12-01T11:04:55.775Z,102970.66
2022-12-01T11:07:34.879Z,102972.88
2022-12-01T11:10:37.243Z,102965.13
2022-12-01T11:13:35.599Z,102963.25
2022-12-01T11:16:04.960Z,102964.69
2022-12-01T11:18:42.821Z,102968.19
2022-12-01T11:21:13.442Z,102958.03
2022-12-01T11:23:48.203Z,102967.16
2022-12-01T11:26:58.334Z,102958.16
2022-12-01T11:29:32.605Z,102955.97
2022-12-01T11:32:00.709Z,102953.22
2022-12-01T11:34:50.830Z,102943.25
2022-12-01T11:37:38.550Z,102938.38
2022-12-01T11:40:43.755Z,102931.53
2022-12-01T11:43:21.198Z,102926.88
2022-12-01T11:45:53.330Z,102929.94
2022-12-01T11:48:29.233Z,102932.84
2022-12-01T11:51:24.074Z,102923.47
2022-12-01T11:54:05.831Z,102916.00
2022-12-01T11:56:52.807Z,102923.22
2022-12-01T11:59:30.834Z,102922.22
2022-12-01T12:02:09.959Z,102917.91
2022-12-01T12:04:56.067Z,102926.16
2022-12-01T12:07:34.917Z,102910.75
2022-12-01T12:10:51.216Z,102912.81
2022-12-01T12:14:03.276Z,102915.47
2022-12-01T12:20:53.734Z,102915.19
2022-12-01T12:23:47.751Z,102898.75
2022-12-01T12:26:22.849Z,102899.59
2022-12-01T12:29:22.003Z,102905.19
2022-12-01T12:32:05.002Z,102907.69
2022-12-01T12:35:09.776Z,102903.34
2022-12-01T12:37:53.752Z,102901.84
2022-12-01T12:40:43.434Z,102900.56
2022-12-01T12:43:55.675Z,102910.91
2022-12-01T12:47:04.293Z,102897.16
2022-12-01T12:49:45.779Z,102903.50
2022-12-01T12:52:33.168Z,102896.81
2022-12-01T12:55:08.391Z,102904.09
2022-12-01T12:57:48.303Z,102893.31
2022-12-01T13:01:05.785Z,102897.03
2022-12-01T13:04:03.742Z,102890.41
2022-12-01T13:07:15.642Z,102889.38
2022-12-01T13:10:06.995Z,102877.19
2022-12-01T13:12:58.331Z,102883.03
2022-12-01T13:15:27.257Z,102879.69
2022-12-01T13:18:02.646Z,102885.47
2022-12-01T13:20:34.743Z,102892.28
2022-12-01T13:23:16.566Z,102882.69
2022-12-01T13:26:01.222Z,102878.72
2022-12-01T13:28:35.274Z,102880.78
2022-12-01T13:31:15.071Z,102892.41
2022-12-01T13:34:01.791Z,102882.66
2022-12-01T13:36:49.477Z,102877.25
2022-12-01T13:39:59.743Z,102875.19
2022-12-01T13:42:54.671Z,102876.63
2022-12-01T13:46:06.023Z,102875.59
2022-12-01T13:48:41.645Z,102874.94
2022-12-01T13:51:08.395Z,102868.69
2022-12-01T13:57:27.055Z,102871.41
2022-12-01T13:59:59.389Z,102870.75
2022-12-01T14:02:28.458Z,102869.47
2022-12-01T14:04:55.040Z,102863.25
2022-12-01T14:07:26.307Z,102863.63
2022-12-01T14:10:08.310Z,102857.59
2022-12-01T14:12:51.366Z,102860.28
2022-12-01T14:15:37.628Z,102858.63
2022-12-01T14:18:08.270Z,102853.25
2022-12-01T14:20:49.431Z,102856.97
2022-12-01T14:23:36.992Z,102854.47
2022-12-01T14:26:49.856Z,102854.66
2022-12-01T14:29:46.307Z,102852.97
2022-12-01T14:32:22.765Z,102853.34
2022-12-01T14:34:54.699Z,102851.69
2022-12-01T14:37:25.509Z,102853.56
2022-12-01T14:39:58.048Z,102852.06
2022-12-01T14:43:08.515Z,102856.81
2022-12-01T14:46:06.087Z,102859.72
2022-12-01T14:48:39.082Z,102864.44
2022-12-01T14:51:56.356Z,102868.34
2022-12-01T14:54:43.144Z,102870.38
2022-12-01T14:57:16.738Z,102860.00
2022-12-01T14:59:44.479Z,102858.31
2022-12-01T15:02:17.221Z,102854.97
2022-12-01T15:05:15.798Z,102857.03
2022-12-01T15:07:45.571Z,102864.47
2022-12-01T15:10:48.033Z,102864.81
2022-12-01T15:13:45.161Z,102869.91
2022-12-01T15:16:18.652Z,102862.41
2022-12-01T15:18:45.521Z,102853.88
2022-12-01T15:21:47.107Z,102857.34
2022-12-01T15:24:30.595Z,102855.84
2022-12-01T15:27:03.668Z,102850.38
2022-12-01T15:29:35.415Z,102853.81
2022-12-01T15:32:08.450Z,102855.94
2022-12-01T15:35:05.334Z,102863.75
2022-12-01T15:37:42.474Z,102864.28
2022-12-01T15:43:23.242Z,102860.56
2022-12-01T15:46:37.466Z,102867.69
2022-12-01T15:49:33.141Z,102877.72
2022-12-01T15:52:11.869Z,102880.94
2022-12-01T15:54:38.862Z,102880.00
2022-12-01T15:57:56.944Z,102880.72
2022-12-01T16:00:26.690Z,102880.63
2022-12-01T16:02:57.372Z,102885.50
2022-12-01T16:05:30.106Z,102885.03
2022-12-01T16:08:48.689Z,102881.38
2022-12-01T16:11:18.223Z,102892.84
2022-12-01T16:14:21.688Z,102889.72
2022-12-01T16:17:43.003Z,102885.03
2022-12-01T16:20:25.655Z,102885.41
2022-12-01T16:23:22.389Z,102891.94
2022-12-01T16:25:49.019Z,102890.63
2022-12-01T16:28:23.121Z,102895.34
2022-12-01T16:30:50.327Z,102899.25
2022-12-01T16:33:42.718Z,102890.50
2022-12-01T16:36:54.311Z,102896.25
2022-12-01T16:39:43.368Z,102887.53
2022-12-01T16:42:24.541Z,102889.56
2022-12-01T16:44:52.566Z,102894.91
2022-12-01T16:47:24.992Z,102889.91
2022-12-01T16:49:52.237Z,102889.41
2022-12-01T16:52:44.911Z,102879.19
2022-12-01T16:55:33.041Z,102887.59
2022-12-01T16:58:00.606Z,102869.81
2022-12-01T17:00:33.150Z,102879.75
2022-12-01T17:03:12.747Z,102881.56
2022-12-01T17:05:40.462Z,102878.41
2022-12-01T17:08:07.031Z,102878.78
2022-12-01T17:10:33.571Z,102873.56
2022-12-01T17:13:00.211Z,102874.56
2022-12-01T17:16:19.071Z,102883.81
2022-12-01T17:18:45.568Z,102877.28
2022-12-01T17:21:32.294Z,102878.97
2022-12-01T17:24:04.371Z,102887.03
2022-12-01T17:26:37.971Z,102884.03
2022-12-01T17:29:14.630Z,102882.53
2022-12-01T17:31:41.012Z,102885.72
2022-12-01T17:34:07.410Z,102877.88
2022-12-01T17:36:33.767Z,102879.69
2022-12-01T17:39:10.471Z,102881.06
2022-12-01T17:41:36.819Z,102884.75
2022-12-01T17:47:57.882Z,102881.41
2022-12-01T17:54:13.964Z,102880.41
2022-12-01T17:57:27.252Z,102882.47
2022-12-01T18:00:22.723Z,102880.78
2022-12-01T18:03:24.043Z,102875.75
2022-12-01T18:06:12.475Z,102882.50
2022-12-01T18:08:59.616Z,102875.25
2022-12-01T18:11:31.766Z,102875.59
2022-12-01T18:14:10.526Z,102873.09
2022-12-01T18:16:36.940Z,102875.78
2022-12-01T18:19:04.388Z,102870.75
2022-12-01T18:21:30.849Z,102870.75
2022-12-01T18:24:02.790Z,102875.47
2022-12-01T18:27:08.268Z,102872.94
2022-12-01T18:29:50.047Z,102877.47
2022-12-01T18:32:31.190Z,102877.81
2022-12-01T18:35:19.436Z,102875.81
2022-12-01T18:38:04.123Z,102868.78
2022-12-01T18:40:30.479Z,102875.81
2022-12-01T18:43:01.788Z,102878.50
2022-12-01T18:45:43.458Z,102875.13
2022-12-01T18:51:54.520Z,102883.03
2022-12-01T18:54:20.906Z,102878.50
2022-12-01T18:57:03.812Z,102874.81
2022-12-01T18:59:45.437Z,102878.31
2022-12-01T19:02:21.986Z,102872.97
2022-12-01T19:04:50.044Z,102872.63
2022-12-01T19:07:16.683Z,102876.63
2022-12-01T19:09:51.230Z,102880.81
2022-12-01T19:12:29.797Z,102877.63
2022-12-01T19:14:56.908Z,102874.59
2022-12-01T19:17:32.008Z,102888.19
2022-12-01T19:19:59.054Z,102883.09
2022-12-01T19:22:28.557Z,102883.75
2022-12-01T19:24:55.230Z,102871.00
2022-12-01T19:27:21.933Z,102877.53
2022-12-01T19:29:49.477Z,102874.50
2022-12-01T19:32:16.151Z,102870.47
2022-12-01T19:35:00.004Z,102882.34
2022-12-01T19:37:30.542Z,102874.59
2022-12-01T19:40:03.192Z,102872.44
2022-12-01T19:42:34.647Z,102865.84
2022-12-01T19:45:21.283Z,102866.34
2022-12-01T19:47:47.780Z,102872.03
2022-12-01T19:50:16.177Z,102864.44
2022-12-01T19:52:51.876Z,102869.47
2022-12-01T19:55:18.270Z,102865.78
2022-12-01T19:57:44.728Z,102867.09
2022-12-01T20:00:11.808Z,102868.78
2022-12-01T20:02:38.273Z,102875.47
2022-12-01T20:05:22.058Z,102877.94
2022-12-01T20:07:48.622Z,102880.47
2022-12-01T20:10:19.983Z,102876.78
2022-12-01T20:12:50.580Z,102873.91
2022-12-01T20:15:17.352Z,102876.44
2022-12-01T20:17:56.008Z,102862.81
2022-12-01T20:20:22.467Z,102872.53
2022-12-01T20:22:48.903Z,102868.66
2022-12-01T20:25:15.360Z,102868.66
2022-12-01T20:27:42.503Z,102872.00
2022-12-01T20:30:09.616Z,102865.63
2022-12-01T20:32:36.004Z,102862.09
2022-12-01T20:35:02.544Z,102867.31
2022-12-01T20:37:28.939Z,102869.13
2022-12-01T20:39:55.789Z,102873.69
2022-12-01T20:42:24.450Z,102881.75
2022-12-01T20:44:51.034Z,102875.38
2022-12-01T20:47:21.245Z,102878.72
2022-12-01T20:49:47.787Z,102876.69
2022-12-01T20:52:14.172Z,102874.00
2022-12-01T20:54:42.438Z,102865.94
2022-12-01T20:57:08.919Z,102861.38
2022-12-01T20:59:35.360Z,102859.53
2022-12-01T21:02:01.822Z,102860.19
2022-12-01T21:04:28.229Z,102856.50
2022-12-01T21:06:56.422Z,102856.31
2022-12-01T21:09:22.794Z,102850.94
2022-12-01T21:12:09.320Z,102850.94
2022-12-01T21:15:08.292Z,102852.44
2022-12-01T21:17:42.565Z,102856.78
2022-12-01T21:20:39.344Z,102855.78
2022-12-01T21:23:10.775Z,102844.84
2022-12-01T21:25:39.116Z,102843.16
2022-12-01T21:28:24.181Z,102844.03
2022-12-01T21:31:01.892Z,102839.47
2022-12-01T21:33:35.355Z,102844.69
2022-12-01T21:36:06.836Z,102835.97
2022-12-01T21:38:33.378Z,102838.66
2022-12-01T21:41:09.348Z,102828.56
2022-12-01T21:43:38.423Z,102833.91
2022-12-01T21:46:13.639Z,102831.03
2022-12-01T21:48:47.583Z,102823.16
2022-12-01T21:51:23.979Z,102828.56
2022-12-01T21:53:52.412Z,102823.16
2022-12-01T21:56:25.365Z,102824.00
2022-12-01T21:58:53.065Z,102828.56
2022-12-01T22:01:29.476Z,102824.00
2022-12-01T22:04:31.348Z,102817.78
2022-12-01T22:06:58.191Z,102822.81
2022-12-01T22:09:31.866Z,102826.53
2022-12-01T22:12:27.069Z,102821.13
2022-12-01T22:14:59.959Z,102818.44
2022-12-01T22:17:27.919Z,102821.97
2022-12-01T22:20:27.876Z,102821.59
2022-12-01T22:22:54.251Z,102825.13
2022-12-01T22:25:27.008Z,102812.72
2022-12-01T22:27:53.451Z,102809.19
2022-12-01T22:30:22.023Z,102819.75
2022-12-01T22:36:31.734Z,102809.66
2022-12-01T22:38:58.671Z,102809.66
2022-12-01T22:41:26.759Z,102806.78
2022-12-01T22:44:00.609Z,102808.44
2022-12-01T22:46:29.447Z,102810.94
2022-12-01T22:49:22.148Z,102798.56
2022-12-01T22:52:01.043Z,102808.66
2022-12-01T22:54:32.219Z,102807.63
2022-12-01T22:57:11.964Z,102809.31
2022-12-01T22:59:41.287Z,102806.78
2022-12-01T23:05:57.331Z,102812.00
2022-12-01T23:08:49.643Z,102800.19
2022-12-01T23:11:30.412Z,102803.94
2022-12-01T23:14:13.363Z,102799.56
2022-12-01T23:16:40.014Z,102803.94
2022-12-01T23:19:09.717Z,102797.50
2022-12-01T23:21:36.548Z,102791.50
2022-12-01T23:24:04.304Z,102792.31
2022-12-01T23:27:21.502Z,102787.97
2022-12-01T23:29:51.083Z,102791.50
2022-12-01T23:32:27.906Z,102787.81
2022-12-01T23:34:59.881Z,102787.81
2022-12-01T23:37:34.580Z,102787.81
2022-12-01T23:40:29.659Z,102785.28
2022-12-01T23:43:02.839Z,102786.28
2022-12-01T23:45:36.427Z,102790.84
2022-12-01T23:48:17.468Z,102785.47
2022-12-01T23:50:49.009Z,102777.41
2022-12-01T23:53:25.357Z,102773.72
2022-12-01T23:55:51.872Z,102779.91
2022-12-01T23:58:20.560Z,102779.09
